createdAt,value
2022-09-06T00:00:36.818Z,99758.81
2022-09-06T00:03:06.889Z,99762.75
2022-09-06T00:05:36.791Z,99766.09
2022-09-06T00:08:07.505Z,99756.06
2022-09-06T00:10:37.645Z,99765.34
2022-09-06T00:13:10.020Z,99770.06
2022-09-06T00:15:39.366Z,99761.22
2022-09-06T00:18:09.222Z,99761.53
2022-09-06T00:20:41.526Z,99754.81
2022-09-06T00:23:10.660Z,99756.34
2022-09-06T00:25:39.790Z,99759.84
2022-09-06T00:28:10.296Z,99761.84
2022-09-06T00:30:39.830Z,99761.22
2022-09-06T00:33:08.915Z,99768.06
2022-09-06T00:35:37.951Z,99760.00
2022-09-06T00:38:06.912Z,99761.84
2022-09-06T00:40:36.916Z,99758.47
2022-09-06T00:43:06.020Z,99758.47
2022-09-06T00:45:36.420Z,99754.81
2022-09-06T00:48:07.236Z,99754.53
2022-09-06T00:50:36.423Z,99749.03
2022-09-06T00:53:05.895Z,99753.13
2022-09-06T00:55:35.214Z,99748.72
2022-09-06T00:58:04.515Z,99751.19
2022-09-06T01:00:33.499Z,99751.47
2022-09-06T01:03:04.829Z,99749.00
2022-09-06T01:05:49.666Z,99749.97
2022-09-06T01:08:32.724Z,99749.97
2022-09-06T01:11:33.873Z,99755.13
2022-09-06T01:14:16.989Z,99752.53
2022-09-06T01:16:55.487Z,99752.38
2022-09-06T01:20:12.357Z,99748.09
2022-09-06T01:22:58.438Z,99749.66
2022-09-06T01:25:37.878Z,99752.38
2022-09-06T01:28:35.066Z,99751.16
2022-09-06T01:31:21.181Z,99754.81
2022-09-06T01:33:55.633Z,99749.66
2022-09-06T01:36:28.719Z,99762.72
2022-09-06T01:38:57.757Z,99757.56
2022-09-06T01:41:27.029Z,99762.72
2022-09-06T01:43:59.253Z,99757.56
2022-09-06T01:46:34.695Z,99758.47
2022-09-06T01:49:24.089Z,99754.06
2022-09-06T01:52:01.657Z,99756.63
2022-09-06T01:54:47.939Z,99748.88
2022-09-06T01:57:33.221Z,99755.13
2022-09-06T02:00:09.240Z,99755.13
2022-09-06T02:02:54.605Z,99746.28
2022-09-06T02:05:32.333Z,99749.00
2022-09-06T02:08:07.233Z,99748.09
2022-09-06T02:10:41.546Z,99752.38
2022-09-06T02:13:12.208Z,99749.66
2022-09-06T02:15:47.611Z,99754.97
2022-09-06T02:18:24.043Z,99754.06
2022-09-06T02:20:58.277Z,99751.16
2022-09-06T02:23:32.420Z,99756.78
2022-09-06T02:26:07.136Z,99761.19
2022-09-06T02:28:36.810Z,99767.31
2022-09-06T02:31:13.167Z,99754.50
2022-09-06T02:33:45.575Z,99760.59
2022-09-06T02:36:16.050Z,99756.19
2022-09-06T02:38:47.143Z,99764.72
2022-09-06T02:41:19.452Z,99755.72
2022-09-06T02:43:48.444Z,99756.31
2022-09-06T02:46:19.078Z,99760.91
2022-09-06T02:48:48.274Z,99759.38
2022-09-06T02:51:17.481Z,99761.22
2022-09-06T02:53:46.672Z,99758.78
2022-09-06T02:56:15.765Z,99760.59
2022-09-06T02:58:44.901Z,99760.00
2022-09-06T03:01:14.027Z,99759.41
2022-09-06T03:03:44.695Z,99755.28
2022-09-06T03:06:13.765Z,99764.72
2022-09-06T03:08:42.894Z,99764.91
2022-09-06T03:11:12.001Z,99772.19
2022-09-06T03:13:41.106Z,99770.22
2022-09-06T03:16:10.384Z,99780.72
2022-09-06T03:18:39.586Z,99782.56
2022-09-06T03:21:10.136Z,99777.97
2022-09-06T03:23:40.222Z,99774.94
2022-09-06T03:26:10.011Z,99777.97
2022-09-06T03:28:39.215Z,99784.56
2022-09-06T03:31:08.609Z,99785.28
2022-09-06T03:33:37.795Z,99787.88
2022-09-06T03:36:07.198Z,99783.78
2022-09-06T03:38:37.684Z,99797.19
2022-09-06T03:41:06.740Z,99787.41
2022-09-06T03:43:37.987Z,99789.72
2022-09-06T03:46:07.645Z,99786.38
2022-09-06T03:48:36.974Z,99784.84
2022-09-06T03:51:06.303Z,99788.22
2022-09-06T03:53:35.355Z,99788.84
2022-09-06T03:56:06.241Z,99784.09
2022-09-06T03:58:35.231Z,99778.00
2022-09-06T04:01:06.692Z,99779.53
2022-09-06T04:03:36.798Z,99777.06
2022-09-06T04:06:07.631Z,99786.53
2022-09-06T04:08:38.309Z,99781.63
2022-09-06T04:11:09.063Z,99781.63
2022-09-06T04:13:38.529Z,99780.69
2022-09-06T04:16:08.176Z,99790.44
2022-09-06T04:18:37.444Z,99786.78
2022-09-06T04:21:06.969Z,99786.78
2022-09-06T04:23:39.770Z,99790.25
2022-09-06T04:26:10.638Z,99791.91
2022-09-06T04:28:39.960Z,99780.75
2022-09-06T04:31:09.422Z,99780.53
2022-09-06T04:33:41.113Z,99782.97
2022-09-06T04:36:11.896Z,99780.47
2022-09-06T04:38:43.304Z,99771.91
2022-09-06T04:41:18.988Z,99774.44
2022-09-06T04:43:48.233Z,99775.38
2022-09-06T04:46:21.847Z,99774.84
2022-09-06T04:48:53.004Z,99782.59
2022-09-06T04:51:22.302Z,99769.84
2022-09-06T04:53:51.576Z,99773.34
2022-09-06T04:56:23.441Z,99773.72
2022-09-06T04:58:54.142Z,99780.00
2022-09-06T05:01:23.185Z,99778.94
2022-09-06T05:03:56.165Z,99769.38
2022-09-06T05:06:28.627Z,99777.19
2022-09-06T05:08:57.916Z,99767.59
2022-09-06T05:11:28.424Z,99763.72
2022-09-06T05:13:57.527Z,99764.78
2022-09-06T05:16:26.886Z,99759.75
2022-09-06T05:18:55.972Z,99747.13
2022-09-06T05:21:25.033Z,99774.41
2022-09-06T05:23:58.382Z,99748.25
2022-09-06T05:26:29.225Z,99749.81
2022-09-06T05:28:58.298Z,99751.78
2022-09-06T05:31:29.938Z,99757.56
2022-09-06T05:33:59.839Z,99757.94
2022-09-06T05:36:30.865Z,99754.03
2022-09-06T05:39:00.259Z,99762.25
2022-09-06T05:41:30.887Z,99766.03
2022-09-06T05:43:59.869Z,99763.84
2022-09-06T05:46:28.817Z,99765.81
2022-09-06T05:49:01.282Z,99760.53
2022-09-06T05:51:31.465Z,99763.81
2022-09-06T05:54:00.961Z,99763.66
2022-09-06T05:56:31.437Z,99762.63
2022-09-06T05:59:00.405Z,99767.81
2022-09-06T06:01:31.060Z,99765.34
2022-09-06T06:04:02.378Z,99762.13
2022-09-06T06:06:32.917Z,99765.47
2022-09-06T06:09:02.483Z,99771.88
2022-09-06T06:11:33.646Z,99767.13
2022-09-06T06:14:04.375Z,99767.38
2022-09-06T06:16:33.490Z,99767.16
2022-09-06T06:19:02.514Z,99768.78
2022-09-06T06:21:33.242Z,99762.41
2022-09-06T06:24:03.869Z,99770.13
2022-09-06T06:26:35.866Z,99765.91
2022-09-06T06:29:08.192Z,99770.13
2022-09-06T06:31:38.740Z,99773.28
2022-09-06T06:34:08.212Z,99773.81
2022-09-06T06:36:38.525Z,99776.22
2022-09-06T06:39:09.744Z,99767.63
2022-09-06T06:41:40.576Z,99762.53
2022-09-06T06:44:30.080Z,99761.00
2022-09-06T06:47:02.125Z,99761.13
2022-09-06T06:49:31.278Z,99769.59
2022-09-06T06:52:00.334Z,99760.38
2022-09-06T06:54:29.936Z,99755.94
2022-09-06T06:57:00.349Z,99761.50
2022-09-06T06:59:29.286Z,99760.75
2022-09-06T07:01:58.893Z,99758.81
2022-09-06T07:04:27.979Z,99757.91
2022-09-06T07:12:37.819Z,99755.84
2022-09-06T07:15:08.294Z,99746.97
2022-09-06T07:17:37.795Z,99760.94
2022-09-06T07:20:15.949Z,99748.41
2022-09-06T07:22:45.686Z,99742.94
2022-09-06T07:25:20.523Z,99751.00
2022-09-06T07:27:59.039Z,99745.81
2022-09-06T07:30:30.232Z,99739.97
2022-09-06T07:33:00.430Z,99730.72
2022-09-06T07:35:29.405Z,99723.09
2022-09-06T07:37:59.696Z,99744.81
2022-09-06T07:40:31.370Z,99740.75
2022-09-06T07:43:02.192Z,99733.53
2022-09-06T07:45:31.155Z,99726.19
2022-09-06T07:48:00.430Z,99733.97
2022-09-06T07:50:47.439Z,99731.25
2022-09-06T07:53:29.067Z,99730.94
2022-09-06T07:56:01.255Z,99737.91
2022-09-06T07:58:32.601Z,99745.94
2022-09-06T08:01:19.216Z,99734.63
2022-09-06T08:03:49.174Z,99737.06
2022-09-06T08:06:18.459Z,99752.31
2022-09-06T08:11:24.124Z,99738.47
2022-09-06T08:13:56.010Z,99741.59
2022-09-06T08:16:28.019Z,99751.16
2022-09-06T08:18:59.002Z,99764.91
2022-09-06T08:21:30.182Z,99748.16
2022-09-06T08:24:01.100Z,99762.22
2022-09-06T08:26:31.538Z,99739.22
2022-09-06T08:29:03.390Z,99741.50
2022-09-06T08:31:33.869Z,99734.84
2022-09-06T08:34:03.854Z,99730.44
2022-09-06T08:36:33.365Z,99715.19
2022-09-06T08:39:04.114Z,99715.56
2022-09-06T08:41:38.991Z,99724.00
2022-09-06T08:47:08.037Z,99711.38
2022-09-06T08:49:39.618Z,99724.19
2022-09-06T08:52:34.153Z,99704.19
2022-09-06T08:55:15.149Z,99718.16
2022-09-06T08:57:59.889Z,99709.03
2022-09-06T09:00:31.329Z,99708.03
2022-09-06T09:03:12.067Z,99701.03
2022-09-06T09:05:48.411Z,99706.91
2022-09-06T09:08:26.320Z,99694.47
2022-09-06T09:11:02.084Z,99700.47
2022-09-06T09:13:36.525Z,99692.66
2022-09-06T09:16:08.067Z,99694.50
2022-09-06T09:18:41.065Z,99692.81
2022-09-06T09:21:11.367Z,99698.66
2022-09-06T09:23:40.626Z,99700.88
2022-09-06T09:26:15.456Z,99706.59
2022-09-06T09:29:08.697Z,99699.38
2022-09-06T09:31:41.103Z,99702.84
2022-09-06T09:34:14.836Z,99695.94
2022-09-06T09:39:37.326Z,99691.28
2022-09-06T09:42:07.208Z,99695.41
2022-09-06T09:44:38.148Z,99683.56
2022-09-06T09:47:25.684Z,99675.94
2022-09-06T09:49:54.713Z,99678.00
2022-09-06T09:52:27.047Z,99681.06
2022-09-06T09:54:59.056Z,99676.63
2022-09-06T09:57:31.370Z,99672.88
2022-09-06T10:00:02.201Z,99681.84
2022-09-06T10:02:39.228Z,99679.84
2022-09-06T10:05:19.078Z,99685.66
2022-09-06T10:07:50.442Z,99677.78
2022-09-06T10:10:23.538Z,99682.69
2022-09-06T10:13:08.384Z,99672.31
2022-09-06T10:15:39.204Z,99670.59
2022-09-06T10:18:19.086Z,99673.22
2022-09-06T10:20:59.878Z,99668.56
2022-09-06T10:26:34.788Z,99693.22
2022-09-06T10:29:06.912Z,99687.53
2022-09-06T10:31:57.697Z,99683.25
2022-09-06T10:35:07.856Z,99689.22
2022-09-06T10:37:52.080Z,99681.22
2022-09-06T10:40:33.232Z,99680.56
2022-09-06T10:43:04.583Z,99681.72
2022-09-06T10:45:46.297Z,99677.09
2022-09-06T10:48:20.935Z,99682.19
2022-09-06T10:50:58.884Z,99685.28
2022-09-06T10:53:38.545Z,99679.69
2022-09-06T10:56:11.922Z,99681.22
2022-09-06T11:01:43.123Z,99660.47
2022-09-06T11:04:24.951Z,99664.06
2022-09-06T11:06:58.914Z,99660.41
2022-09-06T11:09:33.852Z,99658.09
2022-09-06T11:12:09.484Z,99674.63
2022-09-06T11:14:39.832Z,99671.03
2022-09-06T11:17:14.203Z,99682.69
2022-09-06T11:19:49.576Z,99678.19
2022-09-06T11:22:40.408Z,99670.34
2022-09-06T11:25:35.922Z,99665.13
2022-09-06T11:28:10.079Z,99657.31
2022-09-06T11:30:44.621Z,99660.78
2022-09-06T11:33:23.979Z,99667.19
2022-09-06T11:35:54.864Z,99664.78
2022-09-06T11:38:28.182Z,99673.19
2022-09-06T11:41:02.525Z,99673.50
2022-09-06T11:43:47.665Z,99681.16
2022-09-06T11:46:53.291Z,99669.19
2022-09-06T11:49:37.392Z,99679.88
2022-09-06T11:52:42.718Z,99668.28
2022-09-06T11:55:22.193Z,99676.09
2022-09-06T11:57:57.181Z,99681.00
2022-09-06T12:00:27.109Z,99675.16
2022-09-06T12:06:17.254Z,99661.47
2022-09-06T12:08:46.802Z,99661.00
2022-09-06T12:11:30.592Z,99668.59
2022-09-06T12:14:03.457Z,99658.16
2022-09-06T12:17:07.188Z,99659.22
2022-09-06T12:19:46.245Z,99655.19
2022-09-06T12:22:52.765Z,99656.63
2022-09-06T12:25:41.832Z,99653.94
2022-09-06T12:28:25.855Z,99655.16
2022-09-06T12:30:55.063Z,99659.16
2022-09-06T12:33:29.756Z,99654.13
2022-09-06T12:36:14.257Z,99637.63
2022-09-06T12:38:56.326Z,99646.00
2022-09-06T12:41:25.974Z,99645.06
2022-09-06T12:43:58.336Z,99640.25
2022-09-06T12:46:30.843Z,99642.06
2022-09-06T12:49:09.306Z,99634.66
2022-09-06T12:51:39.384Z,99633.97
2022-09-06T12:54:21.888Z,99638.25
2022-09-06T12:56:51.678Z,99634.06
2022-09-06T12:59:25.110Z,99634.88
2022-09-06T13:02:00.585Z,99626.94
2022-09-06T13:04:39.957Z,99625.69
2022-09-06T13:07:14.385Z,99624.81
2022-09-06T13:09:46.721Z,99622.97
2022-09-06T13:12:29.674Z,99626.94
2022-09-06T13:15:06.014Z,99610.63
2022-09-06T13:17:35.722Z,99618.31
2022-09-06T13:20:13.521Z,99611.22
2022-09-06T13:22:45.649Z,99622.13
2022-09-06T13:25:25.096Z,99621.97
2022-09-06T13:27:58.322Z,99617.09
2022-09-06T13:30:38.663Z,99619.06
2022-09-06T13:33:09.026Z,99615.47
2022-09-06T13:35:39.654Z,99614.16
2022-09-06T13:38:22.699Z,99610.13
2022-09-06T13:43:45.086Z,99611.47
2022-09-06T13:46:15.551Z,99611.38
2022-09-06T13:48:45.204Z,99618.66
2022-09-06T13:51:14.352Z,99610.03
2022-09-06T13:53:43.803Z,99605.75
2022-09-06T13:56:12.783Z,99615.06
2022-09-06T13:58:41.742Z,99601.34
2022-09-06T14:01:11.728Z,99610.88
2022-09-06T14:03:43.804Z,99612.22
2022-09-06T14:06:12.832Z,99615.13
2022-09-06T14:09:05.837Z,99616.41
2022-09-06T14:11:31.088Z,99611.16
2022-09-06T14:14:00.323Z,99610.41
2022-09-06T14:16:29.885Z,99597.81
2022-09-06T14:19:00.488Z,99609.03
2022-09-06T14:21:29.625Z,99605.44
2022-09-06T14:24:04.606Z,99610.63
2022-09-06T14:26:35.334Z,99607.00
2022-09-06T14:29:04.993Z,99612.53
2022-09-06T14:31:34.093Z,99613.19
2022-09-06T14:34:05.187Z,99614.22
2022-09-06T14:36:35.378Z,99615.31
2022-09-06T14:39:04.842Z,99630.00
2022-09-06T14:41:34.083Z,99640.00
2022-09-06T14:44:04.449Z,99628.59
2022-09-06T14:46:33.846Z,99632.75
2022-09-06T14:49:07.461Z,99644.88
2022-09-06T14:51:38.672Z,99643.19
2022-09-06T14:54:10.722Z,99667.69
2022-09-06T14:56:42.049Z,99661.22
2022-09-06T14:59:12.565Z,99654.91
2022-09-06T15:01:42.132Z,99650.75
2022-09-06T15:04:13.521Z,99650.56
2022-09-06T15:06:47.173Z,99649.66
2022-09-06T15:09:17.589Z,99651.63
2022-09-06T15:11:49.404Z,99642.56
2022-09-06T15:14:22.666Z,99630.91
2022-09-06T15:16:55.820Z,99633.03
2022-09-06T15:19:28.705Z,99642.75
2022-09-06T15:21:58.511Z,99636.53
2022-09-06T15:24:28.826Z,99639.75
2022-09-06T15:26:58.652Z,99643.13
2022-09-06T15:29:28.394Z,99634.44
2022-09-06T15:31:57.842Z,99641.56
2022-09-06T15:34:28.712Z,99633.66
2022-09-06T15:36:58.302Z,99638.22
2022-09-06T15:39:27.488Z,99634.84
2022-09-06T15:41:57.984Z,99636.66
2022-09-06T15:44:27.634Z,99630.28
2022-09-06T15:46:58.262Z,99632.47
2022-09-06T15:49:31.352Z,99632.66
2022-09-06T15:52:02.112Z,99640.16
2022-09-06T15:54:48.443Z,99626.28
2022-09-06T15:57:18.809Z,99636.81
2022-09-06T15:59:48.040Z,99634.47
2022-09-06T16:02:17.292Z,99631.88
2022-09-06T16:04:48.506Z,99639.69
2022-09-06T16:07:17.719Z,99634.78
2022-09-06T16:09:46.822Z,99638.44
2022-09-06T16:12:16.183Z,99629.06
2022-09-06T16:14:45.373Z,99631.19
2022-09-06T16:17:14.585Z,99635.13
2022-09-06T16:19:45.693Z,99638.75
2022-09-06T16:22:16.223Z,99636.03
2022-09-06T16:24:45.485Z,99633.28
2022-09-06T16:27:14.596Z,99629.94
2022-09-06T16:29:45.404Z,99630.19
2022-09-06T16:32:14.455Z,99624.94
2022-09-06T16:34:44.551Z,99627.03
2022-09-06T16:37:14.150Z,99628.22
2022-09-06T16:39:44.608Z,99628.50
2022-09-06T16:42:14.934Z,99635.94
2022-09-06T16:44:44.113Z,99631.91
2022-09-06T16:47:16.430Z,99625.31
2022-09-06T16:49:46.163Z,99623.41
2022-09-06T16:52:15.411Z,99620.06
2022-09-06T16:54:47.015Z,99614.88
2022-09-06T16:57:16.247Z,99624.16
2022-09-06T16:59:45.371Z,99614.94
2022-09-06T17:02:14.640Z,99616.34
2022-09-06T17:04:44.814Z,99612.31
2022-09-06T17:07:13.900Z,99617.91
2022-09-06T17:09:43.009Z,99621.69
2022-09-06T17:12:13.664Z,99620.00
2022-09-06T17:14:43.589Z,99614.41
2022-09-06T17:17:13.396Z,99619.59
2022-09-06T17:19:43.448Z,99612.72
2022-09-06T17:22:13.518Z,99621.94
2022-09-06T17:24:45.815Z,99618.94
2022-09-06T17:27:16.505Z,99615.78
2022-09-06T17:29:45.868Z,99622.28
2022-09-06T17:32:15.195Z,99628.16
2022-09-06T17:34:45.197Z,99615.66
2022-09-06T17:37:14.584Z,99625.13
2022-09-06T17:39:45.296Z,99626.06
2022-09-06T17:42:17.116Z,99615.66
2022-09-06T17:44:46.958Z,99619.78
2022-09-06T17:47:16.907Z,99618.72
2022-09-06T17:49:47.321Z,99621.19
2022-09-06T17:52:16.722Z,99625.22
2022-09-06T17:54:47.043Z,99620.94
2022-09-06T17:57:17.659Z,99618.31
2022-09-06T17:59:46.751Z,99622.78
2022-09-06T18:02:16.046Z,99619.22
2022-09-06T18:04:45.281Z,99618.19
2022-09-06T18:07:14.520Z,99612.38
2022-09-06T18:09:43.822Z,99611.94
2022-09-06T18:12:13.906Z,99605.06
2022-09-06T18:14:46.048Z,99601.03
2022-09-06T18:17:15.577Z,99604.41
2022-09-06T18:19:45.739Z,99604.16
2022-09-06T18:22:53.351Z,99599.09
2022-09-06T18:25:22.950Z,99590.66
2022-09-06T18:27:52.472Z,99593.00
2022-09-06T18:30:21.946Z,99600.50
2022-09-06T18:32:51.571Z,99599.59
2022-09-06T18:35:20.950Z,99586.47
2022-09-06T18:37:50.195Z,99581.53
2022-09-06T18:40:22.180Z,99589.47
2022-09-06T18:42:52.138Z,99585.31
2022-09-06T18:45:22.016Z,99592.22
2022-09-06T18:47:51.636Z,99584.53
2022-09-06T18:50:22.161Z,99584.25
2022-09-06T18:52:51.754Z,99583.50
2022-09-06T18:55:22.609Z,99581.66
2022-09-06T18:57:51.889Z,99568.31
2022-09-06T19:00:21.526Z,99578.44
2022-09-06T19:02:51.243Z,99582.84
2022-09-06T19:05:21.903Z,99575.44
2022-09-06T19:07:51.301Z,99576.06
2022-09-06T19:10:22.720Z,99571.38
2022-09-06T19:12:53.530Z,99577.22
2022-09-06T19:15:22.964Z,99580.47
2022-09-06T19:17:53.060Z,99572.09
2022-09-06T19:20:23.175Z,99574.59
2022-09-06T19:22:52.696Z,99575.50
2022-09-06T19:25:23.900Z,99563.78
2022-09-06T19:27:53.416Z,99561.69
2022-09-06T19:30:22.960Z,99574.03
2022-09-06T19:32:53.622Z,99560.75
2022-09-06T19:35:23.275Z,99571.13
2022-09-06T19:37:52.801Z,99567.50
2022-09-06T19:40:23.626Z,99573.00
2022-09-06T19:42:53.598Z,99567.91
2022-09-06T19:45:23.007Z,99568.69
2022-09-06T19:47:52.347Z,99569.03
2022-09-06T19:50:21.715Z,99568.31
2022-09-06T19:52:51.033Z,99569.88
2022-09-06T19:55:20.580Z,99567.34
2022-09-06T19:57:51.382Z,99564.75
2022-09-06T20:00:21.381Z,99569.16
2022-09-06T20:02:50.745Z,99570.44
2022-09-06T20:05:20.281Z,99567.84
2022-09-06T20:07:49.834Z,99579.25
2022-09-06T20:10:19.698Z,99575.06
2022-09-06T20:12:50.351Z,99565.34
2022-09-06T20:15:19.465Z,99573.13
2022-09-06T20:17:48.657Z,99573.84
2022-09-06T20:20:17.926Z,99567.97
2022-09-06T20:22:47.873Z,99566.34
2022-09-06T20:25:17.384Z,99581.38
2022-09-06T20:27:46.676Z,99560.25
2022-09-06T20:30:17.527Z,99566.22
2022-09-06T20:32:48.474Z,99562.72
2022-09-06T20:35:18.502Z,99562.06
2022-09-06T20:37:47.867Z,99555.78
2022-09-06T20:40:22.007Z,99559.56
2022-09-06T20:42:51.083Z,99561.09
2022-09-06T20:45:23.302Z,99548.00
2022-09-06T20:47:53.854Z,99551.38
2022-09-06T20:50:22.961Z,99551.66
2022-09-06T20:52:53.225Z,99544.00
2022-09-06T20:55:22.263Z,99545.19
2022-09-06T20:57:51.563Z,99537.53
2022-09-06T21:00:22.245Z,99537.69
2022-09-06T21:02:51.441Z,99535.38
2022-09-06T21:05:21.154Z,99528.63
2022-09-06T21:07:51.521Z,99534.91
2022-09-06T21:10:21.259Z,99524.06
2022-09-06T21:12:51.456Z,99517.44
2022-09-06T21:15:22.142Z,99522.47
2022-09-06T21:17:51.410Z,99517.44
2022-09-06T21:20:21.154Z,99517.69
2022-09-06T21:22:51.819Z,99519.16
2022-09-06T21:25:21.035Z,99514.88
2022-09-06T21:27:55.652Z,99513.84
2022-09-06T21:30:26.554Z,99513.69
2022-09-06T21:32:56.791Z,99510.97
2022-09-06T21:35:25.926Z,99505.50
2022-09-06T21:37:55.010Z,99508.25
2022-09-06T21:40:24.163Z,99506.28
2022-09-06T21:42:54.468Z,99493.63
2022-09-06T21:45:25.292Z,99505.22
2022-09-06T21:47:54.365Z,99495.59
2022-09-06T21:50:23.426Z,99495.47
2022-09-06T21:52:54.046Z,99499.75
2022-09-06T21:55:23.420Z,99501.56
2022-09-06T21:57:52.459Z,99496.38
2022-09-06T22:00:21.522Z,99493.00
2022-09-06T22:02:52.112Z,99495.78
2022-09-06T22:05:21.166Z,99489.13
2022-09-06T22:07:50.212Z,99499.81
2022-09-06T22:10:19.362Z,99490.09
2022-09-06T22:12:48.429Z,99489.31
2022-09-06T22:15:19.136Z,99485.50
2022-09-06T22:17:48.372Z,99480.94
2022-09-06T22:20:19.385Z,99469.03
2022-09-06T22:22:48.476Z,99481.09
2022-09-06T22:25:17.726Z,99481.59
2022-09-06T22:27:47.007Z,99478.44
2022-09-06T22:30:16.360Z,99478.22
2022-09-06T22:32:45.551Z,99480.94
2022-09-06T22:35:14.647Z,99480.66
2022-09-06T22:37:45.112Z,99485.66
2022-09-06T22:40:14.250Z,99489.50
2022-09-06T22:42:43.498Z,99479.31
2022-09-06T22:45:12.703Z,99486.47
2022-09-06T22:47:41.745Z,99486.94
2022-09-06T22:50:12.657Z,99487.28
2022-09-06T22:52:41.826Z,99484.81
2022-09-06T22:55:12.793Z,99489.88
2022-09-06T22:57:41.893Z,99487.28
2022-09-06T23:00:12.326Z,99486.50
2022-09-06T23:02:41.500Z,99488.31
2022-09-06T23:05:11.078Z,99481.50
2022-09-06T23:07:40.169Z,99485.91
2022-09-06T23:10:09.927Z,99488.50
2022-09-06T23:12:42.656Z,99488.50
2022-09-06T23:15:12.267Z,99481.50
2022-09-06T23:17:41.801Z,99488.19
2022-09-06T23:20:11.037Z,99475.72
2022-09-06T23:22:40.273Z,99480.59
2022-09-06T23:25:10.816Z,99483.19
2022-09-06T23:27:41.278Z,99482.41
2022-09-06T23:30:11.809Z,99480.91
2022-09-06T23:32:40.895Z,99476.97
2022-09-06T23:35:10.532Z,99474.09
2022-09-06T23:37:39.649Z,99471.81
2022-09-06T23:40:09.961Z,99475.50
2022-09-06T23:42:39.166Z,99468.22
2022-09-06T23:45:11.217Z,99472.78
2022-09-06T23:47:40.536Z,99475.25
2022-09-06T23:50:10.374Z,99478.75
2022-09-06T23:52:39.416Z,99476.91
2022-09-06T23:55:09.476Z,99470.97
2022-09-06T23:57:41.813Z,99477.66
